createdAt,value
2019-02-15T00:00:38.674Z,55.94
2019-02-15T00:05:42.083Z,55.97
2019-02-15T00:10:45.366Z,56.10
2019-02-15T00:15:48.649Z,56.27
2019-02-15T00:20:53.579Z,56.42
2019-02-15T00:25:56.882Z,56.51
2019-02-15T00:31:00.274Z,56.71
2019-02-15T00:36:03.609Z,56.70
2019-02-15T00:41:06.918Z,56.75
2019-02-15T00:46:20.861Z,57.10
2019-02-15T00:51:44.170Z,57.01
2019-02-15T00:56:54.928Z,57.01
2019-02-15T01:02:02.914Z,57.12
2019-02-15T01:07:07.896Z,57.14
2019-02-15T01:12:18.624Z,56.94
2019-02-15T01:17:22.005Z,57.10
2019-02-15T01:22:25.334Z,56.87
2019-02-15T01:27:30.293Z,57.13
2019-02-15T01:32:35.268Z,56.94
2019-02-15T01:42:59.384Z,57.01
2019-02-15T01:48:02.736Z,56.83
2019-02-15T01:53:06.154Z,56.77
2019-02-15T01:58:09.483Z,56.86
2019-02-15T02:03:12.867Z,56.78
2019-02-15T02:08:17.840Z,56.73
2019-02-15T02:13:21.186Z,56.48
2019-02-15T02:18:24.594Z,56.54
2019-02-15T02:23:27.908Z,56.64
2019-02-15T02:28:31.242Z,56.53
2019-02-15T02:33:34.582Z,56.52
2019-02-15T02:38:37.958Z,56.44
2019-02-15T02:43:41.305Z,56.27
2019-02-15T02:48:44.724Z,56.19
2019-02-15T02:53:48.027Z,56.20
2019-02-15T02:58:51.332Z,55.95
2019-02-15T03:03:54.664Z,55.84
2019-02-15T03:08:57.995Z,55.84
2019-02-15T03:14:11.088Z,55.59
2019-02-15T03:19:06.384Z,55.59
2019-02-15T03:24:09.737Z,55.61
2019-02-15T03:29:13.044Z,55.48
2019-02-15T03:34:16.428Z,55.42
2019-02-15T03:39:21.400Z,55.26
2019-02-15T03:44:24.735Z,55.18
2019-02-15T03:49:28.207Z,55.12
2019-02-15T03:54:31.538Z,54.96
2019-02-15T03:59:34.874Z,54.90
2019-02-15T04:04:38.197Z,54.64
2019-02-15T04:09:41.530Z,54.68
2019-02-15T04:14:44.878Z,54.57
2019-02-15T04:19:48.202Z,54.47
2019-02-15T04:24:51.509Z,54.33
2019-02-15T04:29:54.852Z,54.15
2019-02-15T04:34:58.185Z,54.09
2019-02-15T04:40:01.630Z,53.94
2019-02-15T04:45:06.701Z,53.94
2019-02-15T04:50:10.106Z,53.68
2019-02-15T04:55:13.441Z,53.69
2019-02-15T05:00:16.768Z,53.61
2019-02-15T05:05:20.126Z,53.39
2019-02-15T05:10:23.465Z,53.19
2019-02-15T05:15:26.780Z,53.06
2019-02-15T05:20:30.231Z,52.90
2019-02-15T05:25:33.611Z,56.51
2019-02-15T05:30:36.940Z,55.17
2019-02-15T05:35:40.273Z,53.91
2019-02-15T05:40:43.603Z,53.18
2019-02-15T05:45:46.976Z,52.67
2019-02-15T05:50:50.432Z,52.58
2019-02-15T05:55:53.771Z,52.35
2019-02-15T06:00:57.173Z,52.37
2019-02-15T06:06:00.484Z,52.32
2019-02-15T06:11:07.193Z,52.05
2019-02-15T06:16:08.909Z,51.82
2019-02-15T06:21:12.217Z,51.66
2019-02-15T06:26:15.632Z,51.40
2019-02-15T06:31:18.940Z,51.24
2019-02-15T06:36:22.343Z,50.98
2019-02-15T06:41:25.704Z,50.69
2019-02-15T06:46:29.009Z,50.52
2019-02-15T06:51:32.337Z,50.28
2019-02-15T06:56:35.668Z,50.19
2019-02-15T07:01:40.647Z,50.07
2019-02-15T07:06:43.981Z,50.07
2019-02-15T07:11:47.320Z,48.32
2019-02-15T07:16:50.744Z,45.36
2019-02-15T07:21:54.065Z,43.49
2019-02-15T07:26:57.476Z,42.49
2019-02-15T07:32:00.784Z,41.28
2019-02-15T07:37:04.116Z,40.60
2019-02-15T07:42:07.424Z,40.24
2019-02-15T07:47:10.816Z,39.89
2019-02-15T07:52:14.144Z,39.70
2019-02-15T07:57:17.584Z,39.37
2019-02-15T08:02:20.921Z,39.22
2019-02-15T08:07:49.482Z,39.22
2019-02-15T08:12:52.827Z,39.15
2019-02-15T08:17:56.190Z,38.97
2019-02-15T08:22:59.599Z,38.77
2019-02-15T08:28:02.914Z,38.52
2019-02-15T08:33:06.248Z,38.48
2019-02-15T08:38:09.631Z,38.41
2019-02-15T08:43:13.028Z,38.33
2019-02-15T08:48:16.369Z,38.33
2019-02-15T08:53:19.777Z,38.20
2019-02-15T08:58:23.157Z,38.14
2019-02-15T09:03:26.652Z,38.19
2019-02-15T09:08:30.205Z,37.95
2019-02-15T09:13:33.496Z,38.52
2019-02-15T09:18:36.833Z,38.91
2019-02-15T09:23:40.152Z,39.20
2019-02-15T09:28:45.117Z,39.38
2019-02-15T09:33:48.450Z,39.76
2019-02-15T09:38:51.881Z,39.96
2019-02-15T09:43:55.316Z,40.29
2019-02-15T09:48:58.642Z,40.46
2019-02-15T09:54:02.024Z,40.58
2019-02-15T09:59:05.398Z,40.78
2019-02-15T10:04:08.756Z,40.80
2019-02-15T10:09:12.122Z,40.96
2019-02-15T10:14:15.469Z,40.99
2019-02-15T10:19:22.452Z,41.09
2019-02-15T10:24:23.925Z,41.16
2019-02-15T10:29:27.283Z,41.18
2019-02-15T10:34:30.757Z,41.27
2019-02-15T10:39:34.083Z,41.39
2019-02-15T10:44:37.403Z,41.36
2019-02-15T10:49:40.714Z,41.52
2019-02-15T10:54:44.067Z,41.54
2019-02-15T10:59:47.427Z,41.64
2019-02-15T11:04:50.839Z,41.79
2019-02-15T11:09:54.303Z,41.78
2019-02-15T11:14:57.647Z,41.83
2019-02-15T11:20:01.045Z,41.79
2019-02-15T11:25:06.222Z,41.82
2019-02-15T11:30:12.265Z,42.02
2019-02-15T11:35:15.574Z,41.96
2019-02-15T11:40:18.921Z,41.91
2019-02-15T11:45:22.285Z,41.98
2019-02-15T11:50:25.633Z,42.06
2019-02-15T11:55:29.013Z,41.93
2019-02-15T12:00:33.980Z,42.00
2019-02-15T12:05:37.369Z,42.00
2019-02-15T12:10:40.696Z,41.86
2019-02-15T12:15:44.032Z,41.89
2019-02-15T12:20:47.363Z,41.80
2019-02-15T12:25:50.680Z,41.75
2019-02-15T12:30:54.086Z,41.76
2019-02-15T12:35:57.413Z,41.71
2019-02-15T12:41:00.817Z,41.63
2019-02-15T12:46:04.212Z,41.60
2019-02-15T12:51:07.561Z,41.57
2019-02-15T12:56:10.874Z,41.56
2019-02-15T13:01:14.270Z,41.57
2019-02-15T13:06:17.595Z,41.46
2019-02-15T13:11:20.918Z,41.42
2019-02-15T13:16:24.292Z,41.30
2019-02-15T13:21:28.492Z,41.08
2019-02-15T13:26:31.806Z,40.95
2019-02-15T13:31:35.136Z,40.79
2019-02-15T13:36:38.452Z,40.74
2019-02-15T13:41:41.801Z,40.67
2019-02-15T13:46:45.137Z,40.59
2019-02-15T13:51:48.546Z,40.56
2019-02-15T13:56:51.885Z,40.44
2019-02-15T14:01:55.223Z,40.39
2019-02-15T14:06:58.560Z,40.33
2019-02-15T14:12:03.026Z,40.32
2019-02-15T14:17:06.509Z,40.28
2019-02-15T14:22:09.823Z,40.26
2019-02-15T14:27:13.134Z,40.08
2019-02-15T14:32:16.461Z,40.16
2019-02-15T14:37:19.782Z,40.25
2019-02-15T14:42:23.118Z,40.25
2019-02-15T14:47:26.469Z,40.30
2019-02-15T14:52:29.870Z,40.20
2019-02-15T14:57:33.177Z,40.22
2019-02-15T15:02:36.495Z,40.25
2019-02-15T15:07:39.824Z,40.25
2019-02-15T15:12:43.240Z,40.32
2019-02-15T15:17:46.618Z,40.36
2019-02-15T15:22:49.946Z,40.38
2019-02-15T15:27:53.281Z,40.45
2019-02-15T15:32:56.614Z,40.49
2019-02-15T15:38:00.019Z,40.65
2019-02-15T15:43:03.425Z,40.55
2019-02-15T15:48:06.709Z,40.58
2019-02-15T15:53:09.991Z,40.67
2019-02-15T15:58:13.286Z,40.68
2019-02-15T16:03:16.626Z,40.69
2019-02-15T16:08:19.889Z,40.87
2019-02-15T16:13:23.192Z,41.12
2019-02-15T16:18:33.145Z,41.11
2019-02-15T16:23:31.457Z,41.19
2019-02-15T16:28:34.870Z,41.18
2019-02-15T16:33:38.165Z,41.17
2019-02-15T16:38:41.437Z,41.31
2019-02-15T16:43:44.726Z,41.42
2019-02-15T16:48:48.051Z,41.35
2019-02-15T16:53:51.347Z,41.47
2019-02-15T16:58:54.639Z,41.37
2019-02-15T17:03:57.911Z,41.40
2019-02-15T17:09:01.369Z,41.34
2019-02-15T17:14:04.645Z,41.34
2019-02-15T17:19:07.961Z,41.33
2019-02-15T17:24:11.256Z,41.24
2019-02-15T17:29:14.573Z,41.24
2019-02-15T17:34:17.940Z,41.25
2019-02-15T17:39:21.237Z,41.16
2019-02-15T17:44:24.529Z,41.11
2019-02-15T17:49:27.824Z,41.12
2019-02-15T17:54:31.143Z,41.12
2019-02-15T17:59:34.426Z,41.19
2019-02-15T18:04:37.774Z,41.08
2019-02-15T18:09:41.076Z,41.00
2019-02-15T18:14:44.364Z,41.08
2019-02-15T18:19:47.652Z,40.97
2019-02-15T18:24:50.937Z,41.00
2019-02-15T18:29:54.252Z,40.97
2019-02-15T18:34:57.541Z,40.88
2019-02-15T18:40:00.829Z,40.97
2019-02-15T18:45:05.637Z,40.94
2019-02-15T18:50:09.962Z,40.89
2019-02-15T18:55:13.269Z,40.83
2019-02-15T19:00:17.079Z,40.89
2019-02-15T19:05:20.368Z,40.79
2019-02-15T19:10:24.308Z,40.88
2019-02-15T19:15:27.887Z,40.81
2019-02-15T19:20:31.175Z,40.82
2019-02-15T19:25:34.455Z,40.74
2019-02-15T19:30:37.829Z,40.80
2019-02-15T19:35:41.109Z,40.93
2019-02-15T19:40:44.436Z,41.08
2019-02-15T19:45:49.079Z,41.12
2019-02-15T19:50:52.358Z,41.11
2019-02-15T19:55:55.635Z,41.20
2019-02-15T20:00:58.926Z,41.27
2019-02-15T20:06:02.229Z,41.32
2019-02-15T20:11:05.746Z,41.34
2019-02-15T20:16:09.063Z,41.32
2019-02-15T20:21:12.397Z,41.35
2019-02-15T20:26:15.688Z,41.27
2019-02-15T20:31:19.230Z,41.32
2019-02-15T20:36:22.603Z,41.43
2019-02-15T20:41:26.053Z,41.39
2019-02-15T20:46:29.352Z,41.40
2019-02-15T20:51:32.649Z,41.41
2019-02-15T20:56:36.019Z,41.43
2019-02-15T21:01:39.344Z,41.40
2019-02-15T21:06:42.648Z,41.42
2019-02-15T21:11:45.955Z,41.89
2019-02-15T21:16:49.244Z,42.32
2019-02-15T21:21:52.541Z,42.40
2019-02-15T21:26:55.826Z,42.44
2019-02-15T21:31:59.154Z,42.40
2019-02-15T21:37:02.431Z,42.37
2019-02-15T21:42:05.727Z,42.30
2019-02-15T21:47:09.016Z,42.22
2019-02-15T21:52:12.313Z,42.19
2019-02-15T21:57:15.605Z,42.12
2019-02-15T22:02:18.878Z,42.05
2019-02-15T22:07:22.675Z,42.02
2019-02-15T22:12:25.955Z,41.95
2019-02-15T22:17:29.245Z,41.87
2019-02-15T22:22:32.518Z,41.86
2019-02-15T22:27:35.820Z,41.76
2019-02-15T22:32:39.122Z,41.68
2019-02-15T22:37:42.397Z,41.66
2019-02-15T22:42:45.673Z,41.66
2019-02-15T22:47:48.975Z,41.56
2019-02-15T22:52:52.339Z,41.54
2019-02-15T22:57:55.560Z,41.42
2019-02-15T23:02:58.837Z,41.40
2019-02-15T23:08:02.137Z,41.42
2019-02-15T23:13:05.432Z,41.41
2019-02-15T23:18:08.749Z,41.38
2019-02-15T23:23:12.077Z,41.35
2019-02-15T23:28:15.378Z,41.30
2019-02-15T23:33:18.690Z,41.20
2019-02-15T23:38:21.955Z,41.25
2019-02-15T23:43:25.247Z,41.25
2019-02-15T23:48:28.543Z,41.18
2019-02-15T23:53:31.832Z,42.37
2019-02-15T23:58:35.174Z,42.85
